Aérodrome :
LOGIN :

S'inscrire | Disclaimer

   EN    FR    IT 

 










Légende :    VFR   VFR Marginal   IFR   IFR Intensif   IFR Très Intensif
Visi : 
Plafond : 
>= 8 km
>= 3000ft
5 à 8 km
1000 à 3000 ft
1500m à 5 km
500 à 1000 ft
800 à 1500m
200 à 500 ft
< 800m
< 200 ft
Symboles :   Orages  Brouillard  Fortes neiges  Fortes précipitations  Vent > 20 kt
SIGMETs :   Divers  Orages  Givrage  Turbulence  Onde Orograph.  Cendres Volcan.







- Altitude de l'aérodrome : 18 ft


LIPC - Cervia AFB Ravenna

DERNIER METAR :
  • 290555Z 22003KT 9999 FEW050 22/17 Q1001 RMK FEW VIS MIN 9999 WIND THR11 22006KT WIND THR29 22005KT BLU

METARs EXPIRÉS :
  • 290455Z 22001KT CAVOK 20/16 Q1001 RMK FEW FEW070 VIS MIN 9999 WIND THR11 22004KT WIND THR29 21004KT BLU
  • 290355Z 21004KT CAVOK 18/16 Q1000

TAF TAF LIPC
Valide du 29 à 06h jusqu'au 29 à 15h UTC


290500Z 2906/2915 21008KT 9999 FEW050
TEMPO 2906/2915 22020G30KT
Pas de NOTAMs connus pour ce terrain.
2 SIGMETs publiés pour la FIR Milano (LIMM) :
 
Turbulence forte
LIMM SIGMET 3 VALID 290700/291100 LIMM- LIMM MILANO FIR SEV TURB FCST S OF LINE N4332 E00758 - N4423 E01340 FL220/360 STNR NC=
Orages noyés dans la masse
LIMM SIGMET 2 VALID 290345/290745 LIMM- LIMM MILANO FIR EMBD TS OBS WI N4642 E01225 - N4552 E01025 - N4502 E01026 - N4556 E01340 - N4632 E01339 - N4642 E01225 TOP FL400 MOV NE NC=



MET'MAP, la Météo Aéronautique d'un coup d'oeil ! - Copyright ORBIFLY Décembre 2007 - Disclaimer

ORBIFLY MET'MAP TEAM :

Programmation & Développement : Alexandra Zaïnal
Conception & Développement : Baudouin d'Aumeries
Co-Programmation & Développement : Marc-Olivier Méhu
Soutien technique & logistique : Manuel Goepfert

Contact : metmap@orbifly.com




SOURCES & CREDITS :

   NOAA